createdAt,value
2023-05-18T00:01:02.646Z,1025.17
2023-05-18T00:02:01.323Z,1025.14
2023-05-18T00:03:01.203Z,1025.15
2023-05-18T00:04:01.946Z,1025.13
2023-05-18T00:05:02.341Z,1025.14
2023-05-18T00:06:05.037Z,1025.1
2023-05-18T00:07:01.451Z,1025.14
2023-05-18T00:08:00.746Z,1025.11
2023-05-18T00:09:00.454Z,1025.13
2023-05-18T00:10:00.163Z,1025.17
2023-05-18T00:11:07.605Z,1025.12
2023-05-18T00:12:01.087Z,1025.17
2023-05-18T00:13:01.078Z,1025.21
2023-05-18T00:14:01.115Z,1025.25
2023-05-18T00:15:01.147Z,1025.25
2023-05-18T00:16:10.846Z,1025.25
2023-05-18T00:17:01.397Z,1025.26
2023-05-18T00:18:01.587Z,1025.23
2023-05-18T00:19:01.291Z,1025.25
2023-05-18T00:20:01.705Z,1025.23
2023-05-18T00:21:14.212Z,1025.23
2023-05-18T00:22:01.033Z,1025.24
2023-05-18T00:23:01.051Z,1025.24
2023-05-18T00:24:01.052Z,1025.21
2023-05-18T00:25:01.082Z,1025.21
2023-05-18T00:26:16.513Z,1025.24
2023-05-18T00:27:02.180Z,1025.23
2023-05-18T00:28:01.091Z,1025.22
2023-05-18T00:29:01.033Z,1025.21
2023-05-18T00:30:00.725Z,1025.26
2023-05-18T00:31:00.407Z,1025.3
2023-05-18T00:32:00.123Z,1025.27
2023-05-18T00:32:59.846Z,1025.3
2023-05-18T00:33:59.495Z,1025.32
2023-05-18T00:35:01.066Z,1025.3
2023-05-18T00:36:01.028Z,1025.31
2023-05-18T00:37:01.198Z,1025.27
2023-05-18T00:38:01.428Z,1025.36
2023-05-18T00:39:01.182Z,1025.34
2023-05-18T00:40:01.101Z,1025.34
2023-05-18T00:41:01.056Z,1025.33
2023-05-18T00:42:01.069Z,1025.25
2023-05-18T00:43:01.799Z,1025.35
2023-05-18T00:44:01.449Z,1025.3
2023-05-18T00:45:01.139Z,1025.31
2023-05-18T00:46:01.192Z,1025.37
2023-05-18T00:47:01.495Z,1025.34
2023-05-18T00:48:01.148Z,1025.36
2023-05-18T00:49:01.993Z,1025.41
2023-05-18T00:50:02.076Z,1025.4
2023-05-18T00:51:01.036Z,1025.38
2023-05-18T00:52:01.103Z,1025.42
2023-05-18T00:53:01.061Z,1025.44
2023-05-18T00:54:01.107Z,1025.42
2023-05-18T00:55:01.208Z,1025.47
2023-05-18T00:56:01.215Z,1025.45
2023-05-18T00:57:03.937Z,1025.47
2023-05-18T00:58:01.106Z,1025.49
2023-05-18T00:59:01.040Z,1025.47
2023-05-18T01:00:03.776Z,1025.51
2023-05-18T01:01:01.158Z,1025.46
2023-05-18T01:02:02.457Z,1025.49
2023-05-18T01:03:02.127Z,1025.5
2023-05-18T01:04:01.135Z,1025.48
2023-05-18T01:05:01.593Z,1025.48
2023-05-18T01:06:01.218Z,1025.48
2023-05-18T01:07:01.269Z,1025.49
2023-05-18T01:08:01.131Z,1025.48
2023-05-18T01:09:00.735Z,1025.48
2023-05-18T01:10:00.341Z,1025.45
2023-05-18T01:10:59.983Z,1025.48
2023-05-18T01:11:59.625Z,1025.45
2023-05-18T01:13:01.855Z,1025.47
2023-05-18T01:14:01.107Z,1025.48
2023-05-18T01:15:01.100Z,1025.47
2023-05-18T01:16:01.093Z,1025.52
2023-05-18T01:17:01.412Z,1025.52
2023-05-18T01:18:01.511Z,1025.54
2023-05-18T01:19:04.384Z,1025.49
2023-05-18T01:20:02.207Z,1025.49
2023-05-18T01:21:01.159Z,1025.49
2023-05-18T01:22:01.168Z,1025.52
2023-05-18T01:23:01.327Z,1025.53
2023-05-18T01:24:01.514Z,1025.52
2023-05-18T01:25:01.100Z,1025.5
2023-05-18T01:26:01.056Z,1025.48
2023-05-18T01:27:01.087Z,1025.49
2023-05-18T01:28:00.786Z,1025.49
2023-05-18T01:29:00.345Z,1025.52
2023-05-18T01:29:59.966Z,1025.49
2023-05-18T01:30:59.680Z,1025.5
2023-05-18T01:32:01.457Z,1025.52
2023-05-18T01:33:01.173Z,1025.56
2023-05-18T01:34:32.818Z,1025.57
2023-05-18T01:35:01.946Z,1025.59
2023-05-18T01:36:01.406Z,1025.58
2023-05-18T01:37:01.190Z,1025.64
2023-05-18T01:38:01.969Z,1025.64
2023-05-18T01:39:01.138Z,1025.67
2023-05-18T01:40:01.056Z,1025.64
2023-05-18T01:41:00.722Z,1025.64
2023-05-18T01:42:00.461Z,1025.64
2023-05-18T01:43:00.129Z,1025.66
2023-05-18T01:43:59.727Z,1025.68
2023-05-18T01:45:01.794Z,1025.67
2023-05-18T01:46:01.109Z,1025.63
2023-05-18T01:47:01.027Z,1025.63
2023-05-18T01:48:01.141Z,1025.69
2023-05-18T01:49:01.244Z,1025.66
2023-05-18T01:50:01.141Z,1025.71
2023-05-18T01:51:01.039Z,1025.64
2023-05-18T01:52:02.735Z,1025.65
2023-05-18T01:53:01.127Z,1025.67
2023-05-18T01:54:01.167Z,1025.64
2023-05-18T01:55:01.029Z,1025.65
2023-05-18T01:56:01.174Z,1025.65
2023-05-18T01:57:05.426Z,1025.67
2023-05-18T01:58:01.429Z,1025.65
2023-05-18T01:59:02.004Z,1025.66
2023-05-18T02:00:01.497Z,1025.68
2023-05-18T02:01:01.197Z,1025.66
2023-05-18T02:02:06.887Z,1025.69
2023-05-18T02:03:01.190Z,1025.68
2023-05-18T02:04:01.257Z,1025.67
2023-05-18T02:05:02.526Z,1025.68
2023-05-18T02:06:01.108Z,1025.75
2023-05-18T02:07:10.080Z,1025.76
2023-05-18T02:08:01.820Z,1025.73
2023-05-18T02:09:01.482Z,1025.76
2023-05-18T02:10:01.524Z,1025.76
2023-05-18T02:11:01.436Z,1025.83
2023-05-18T02:12:12.766Z,1025.79
2023-05-18T02:13:01.089Z,1025.82
2023-05-18T02:14:01.792Z,1025.79
2023-05-18T02:15:01.085Z,1025.81
2023-05-18T02:16:01.129Z,1025.76
2023-05-18T02:17:15.319Z,1025.79
2023-05-18T02:18:01.815Z,1025.77
2023-05-18T02:19:02.322Z,1025.79
2023-05-18T02:20:02.049Z,1025.79
2023-05-18T02:21:01.092Z,1025.8
2023-05-18T02:22:01.029Z,1025.8
2023-05-18T02:23:00.675Z,1025.81
2023-05-18T02:24:00.300Z,1025.79
2023-05-18T02:25:00.099Z,1025.74
2023-05-18T02:25:59.867Z,1025.82
2023-05-18T02:26:59.880Z,1025.82
2023-05-18T02:27:59.600Z,1025.82
2023-05-18T02:29:01.162Z,1025.82
2023-05-18T02:30:01.151Z,1025.82
2023-05-18T02:31:01.567Z,1025.79
2023-05-18T02:32:01.077Z,1025.83
2023-05-18T02:33:01.126Z,1025.78
2023-05-18T02:34:01.707Z,1025.83
2023-05-18T02:35:01.084Z,1025.83
2023-05-18T02:36:01.093Z,1025.81
2023-05-18T02:37:01.197Z,1025.86
2023-05-18T02:38:01.917Z,1025.82
2023-05-18T02:39:02.079Z,1025.88
2023-05-18T02:40:01.125Z,1025.84
2023-05-18T02:41:00.825Z,1025.83
2023-05-18T02:42:00.451Z,1025.88
2023-05-18T02:43:00.100Z,1025.87
2023-05-18T02:44:06.458Z,1025.86
2023-05-18T02:45:05.763Z,1025.88
2023-05-18T02:46:01.753Z,1025.91
2023-05-18T02:47:01.047Z,1025.86
2023-05-18T02:48:01.079Z,1025.94
2023-05-18T02:49:01.058Z,1025.92
2023-05-18T02:50:01.147Z,1025.94
2023-05-18T02:51:00.960Z,1025.95
2023-05-18T02:52:01.496Z,1025.97
2023-05-18T02:53:02.966Z,1025.94
2023-05-18T02:54:01.663Z,1025.96
2023-05-18T02:55:01.272Z,1026
2023-05-18T02:56:01.777Z,1026.02
2023-05-18T02:57:01.113Z,1026.02
2023-05-18T02:58:01.882Z,1026.02
2023-05-18T02:59:01.056Z,1026.05
2023-05-18T03:00:00.503Z,1026.02
2023-05-18T03:01:00.215Z,1026.08
2023-05-18T03:01:59.970Z,1026.07
2023-05-18T03:02:59.687Z,1026.11
2023-05-18T03:04:01.880Z,1026.07
2023-05-18T03:05:01.792Z,1026.11
2023-05-18T03:06:02.074Z,1026.1
2023-05-18T03:07:01.069Z,1026.15
2023-05-18T03:08:01.333Z,1026.14
2023-05-18T03:09:01.484Z,1026.2
2023-05-18T03:10:01.020Z,1026.2
2023-05-18T03:11:01.121Z,1026.21
2023-05-18T03:12:01.106Z,1026.24
2023-05-18T03:13:01.287Z,1026.25
2023-05-18T03:14:02.043Z,1026.3
2023-05-18T03:15:02.662Z,1026.24
2023-05-18T03:16:01.062Z,1026.26
2023-05-18T03:17:01.109Z,1026.21
2023-05-18T03:18:01.096Z,1026.23
2023-05-18T03:19:00.838Z,1026.3
2023-05-18T03:20:00.543Z,1026.26
2023-05-18T03:21:00.329Z,1026.26
2023-05-18T03:22:00.044Z,1026.28
2023-05-18T03:22:59.607Z,1026.25
2023-05-18T03:24:01.699Z,1026.26
2023-05-18T03:25:01.289Z,1026.29
2023-05-18T03:26:01.137Z,1026.31
2023-05-18T03:27:01.243Z,1026.3
2023-05-18T03:28:01.144Z,1026.33
2023-05-18T03:29:01.137Z,1026.31
2023-05-18T03:30:01.437Z,1026.32
2023-05-18T03:31:01.080Z,1026.31
2023-05-18T03:32:01.073Z,1026.32
2023-05-18T03:33:03.893Z,1026.39
2023-05-18T03:34:01.087Z,1026.39
2023-05-18T03:35:01.744Z,1026.42
2023-05-18T03:36:01.245Z,1026.4
2023-05-18T03:37:01.454Z,1026.45
2023-05-18T03:38:06.942Z,1026.43
2023-05-18T03:39:01.295Z,1026.4
2023-05-18T03:40:00.604Z,1026.41
2023-05-18T03:41:00.288Z,1026.46
2023-05-18T03:41:59.879Z,1026.48
2023-05-18T03:43:08.791Z,1026.49
2023-05-18T03:44:01.001Z,1026.45
2023-05-18T03:45:01.596Z,1026.45
2023-05-18T03:46:01.570Z,1026.47
2023-05-18T03:47:03.935Z,1026.44
2023-05-18T03:48:12.749Z,1026.48
2023-05-18T03:49:01.037Z,1026.53
2023-05-18T03:50:01.038Z,1026.51
2023-05-18T03:51:01.052Z,1026.54
2023-05-18T03:52:01.363Z,1026.54
2023-05-18T03:53:15.409Z,1026.56
2023-05-18T03:54:01.422Z,1026.54
2023-05-18T03:55:02.095Z,1026.57
2023-05-18T03:56:01.177Z,1026.57
2023-05-18T03:57:00.781Z,1026.58
2023-05-18T03:58:01.102Z,1026.58
2023-05-18T03:59:01.019Z,1026.61
2023-05-18T04:00:00.718Z,1026.53
2023-05-18T04:01:00.391Z,1026.58
2023-05-18T04:02:00.013Z,1026.56
2023-05-18T04:02:59.811Z,1026.59
2023-05-18T04:04:01.841Z,1026.6
2023-05-18T04:05:01.490Z,1026.59
2023-05-18T04:06:01.300Z,1026.63
2023-05-18T04:07:01.407Z,1026.7
2023-05-18T04:08:01.424Z,1026.69
2023-05-18T04:09:01.097Z,1026.63
2023-05-18T04:10:01.081Z,1026.68
2023-05-18T04:11:01.080Z,1026.68
2023-05-18T04:12:01.106Z,1026.66
2023-05-18T04:13:01.205Z,1026.65
2023-05-18T04:14:01.976Z,1026.65
2023-05-18T04:15:01.950Z,1026.68
2023-05-18T04:16:01.279Z,1026.67
2023-05-18T04:17:01.129Z,1026.64
2023-05-18T04:18:01.219Z,1026.6
2023-05-18T04:19:01.096Z,1026.6
2023-05-18T04:20:01.042Z,1026.66
2023-05-18T04:21:00.763Z,1026.69
2023-05-18T04:22:00.306Z,1026.63
2023-05-18T04:23:00.220Z,1026.63
2023-05-18T04:23:59.836Z,1026.62
2023-05-18T04:25:01.802Z,1026.64
2023-05-18T04:26:01.099Z,1026.63
2023-05-18T04:27:01.090Z,1026.65
2023-05-18T04:28:01.135Z,1026.69
2023-05-18T04:29:01.200Z,1026.64
2023-05-18T04:30:01.839Z,1026.66
2023-05-18T04:31:01.144Z,1026.64
2023-05-18T04:32:01.336Z,1026.65
2023-05-18T04:33:01.111Z,1026.64
2023-05-18T04:34:01.549Z,1026.65
2023-05-18T04:35:04.008Z,1026.64
2023-05-18T04:36:01.152Z,1026.64
2023-05-18T04:37:00.860Z,1026.68
2023-05-18T04:38:01.060Z,1026.65
2023-05-18T04:39:01.016Z,1026.65
2023-05-18T04:40:00.747Z,1026.64
2023-05-18T04:41:00.439Z,1026.65
2023-05-18T04:42:00.067Z,1026.68
2023-05-18T04:43:00.201Z,1026.63
2023-05-18T04:43:59.861Z,1026.65
2023-05-18T04:45:01.507Z,1026.69
2023-05-18T04:46:02.333Z,1026.69
2023-05-18T04:47:00.910Z,1026.73
2023-05-18T04:48:00.745Z,1026.69
2023-05-18T04:49:00.491Z,1026.66
2023-05-18T04:50:00.114Z,1026.72
2023-05-18T04:50:59.793Z,1026.74
2023-05-18T04:52:01.449Z,1026.72
2023-05-18T04:53:01.044Z,1026.71
2023-05-18T04:54:01.098Z,1026.73
2023-05-18T04:55:01.077Z,1026.76
2023-05-18T04:56:01.085Z,1026.84
2023-05-18T04:57:01.462Z,1026.8
2023-05-18T04:58:01.151Z,1026.82
2023-05-18T04:59:01.073Z,1026.85
2023-05-18T05:00:01.225Z,1026.86
2023-05-18T05:01:01.145Z,1026.86
2023-05-18T05:02:01.095Z,1026.89
2023-05-18T05:03:01.328Z,1026.88
2023-05-18T05:04:01.267Z,1026.87
2023-05-18T05:05:01.176Z,1026.95
2023-05-18T05:06:01.506Z,1026.91
2023-05-18T05:07:04.411Z,1026.92
2023-05-18T05:08:01.108Z,1026.94
2023-05-18T05:09:01.032Z,1026.94
2023-05-18T05:10:01.053Z,1026.92
2023-05-18T05:11:01.051Z,1026.89
2023-05-18T05:12:01.053Z,1026.91
2023-05-18T05:13:01.071Z,1026.92
2023-05-18T05:14:01.578Z,1026.92
2023-05-18T05:15:01.194Z,1026.84
2023-05-18T05:16:01.101Z,1026.93
2023-05-18T05:17:01.081Z,1026.88
2023-05-18T05:18:01.142Z,1026.92
2023-05-18T05:19:03.718Z,1026.9
2023-05-18T05:20:00.898Z,1026.93
2023-05-18T05:21:01.193Z,1026.96
2023-05-18T05:22:01.165Z,1026.98
2023-05-18T05:23:01.074Z,1026.97
2023-05-18T05:24:05.652Z,1026.97
2023-05-18T05:25:02.146Z,1026.97
2023-05-18T05:26:02.998Z,1027.01
2023-05-18T05:27:01.195Z,1026.95
2023-05-18T05:28:01.078Z,1026.94
2023-05-18T05:29:08.914Z,1026.93
2023-05-18T05:30:01.083Z,1026.96
2023-05-18T05:31:01.048Z,1026.93
2023-05-18T05:32:01.255Z,1026.96
2023-05-18T05:33:01.135Z,1026.98
2023-05-18T05:34:11.518Z,1026.98
2023-05-18T05:35:01.098Z,1027
2023-05-18T05:36:01.138Z,1027.03
2023-05-18T05:37:01.125Z,1026.98
2023-05-18T05:38:01.116Z,1026.98
2023-05-18T05:39:15.038Z,1027.01
2023-05-18T05:40:01.042Z,1027.01
2023-05-18T05:41:00.823Z,1027
2023-05-18T05:42:01.442Z,1026.98
2023-05-18T05:43:01.087Z,1027
2023-05-18T05:44:01.068Z,1027.02
2023-05-18T05:45:01.053Z,1027.03
2023-05-18T05:46:01.058Z,1027.01
2023-05-18T05:47:01.077Z,1027.05
2023-05-18T05:48:01.054Z,1027.06
2023-05-18T05:49:01.140Z,1027.08
2023-05-18T05:50:01.147Z,1027.09
2023-05-18T05:51:02.410Z,1027.04
2023-05-18T05:52:02.200Z,1027.1
2023-05-18T05:53:01.119Z,1027.09
2023-05-18T05:54:00.849Z,1027.09
2023-05-18T05:55:01.973Z,1027.1
2023-05-18T05:56:01.058Z,1027.08
2023-05-18T05:57:01.030Z,1027.06
2023-05-18T05:58:01.035Z,1027.06
2023-05-18T05:59:01.064Z,1027.11
2023-05-18T06:00:01.766Z,1027.05
2023-05-18T06:01:01.075Z,1027.05
2023-05-18T06:02:01.105Z,1027.05
2023-05-18T06:03:01.116Z,1027.11
2023-05-18T06:04:01.179Z,1027.11
2023-05-18T06:05:01.106Z,1027.13
2023-05-18T06:06:01.421Z,1027.13
2023-05-18T06:07:01.193Z,1027.18
2023-05-18T06:08:01.191Z,1027.15
2023-05-18T06:09:01.044Z,1027.14
2023-05-18T06:10:01.202Z,1027.12
2023-05-18T06:11:01.212Z,1027.13
2023-05-18T06:12:01.229Z,1027.12
2023-05-18T06:13:01.238Z,1027.11
2023-05-18T06:14:01.249Z,1027.13
2023-05-18T06:15:01.066Z,1027.15
2023-05-18T06:16:01.111Z,1027.12
2023-05-18T06:17:01.096Z,1027.18
2023-05-18T06:18:01.051Z,1027.1
2023-05-18T06:19:01.089Z,1027.12
2023-05-18T06:20:01.108Z,1027.12
2023-05-18T06:21:01.094Z,1027.11
2023-05-18T06:22:01.694Z,1027.14
2023-05-18T06:23:01.123Z,1027.13
2023-05-18T06:24:01.140Z,1027.12
2023-05-18T06:25:01.135Z,1027.15
2023-05-18T06:26:01.113Z,1027.12
2023-05-18T06:27:01.137Z,1027.1
2023-05-18T06:28:01.037Z,1027.09
2023-05-18T06:29:01.056Z,1027.07
2023-05-18T06:30:01.052Z,1027.08
2023-05-18T06:31:01.696Z,1027.1
2023-05-18T06:32:01.197Z,1027.1
2023-05-18T06:33:01.105Z,1027.13
2023-05-18T06:34:01.085Z,1027.1
2023-05-18T06:35:01.228Z,1027.17
2023-05-18T06:36:01.187Z,1027.17
2023-05-18T06:37:01.125Z,1027.14
2023-05-18T06:38:01.120Z,1027.2
2023-05-18T06:39:01.124Z,1027.18
2023-05-18T06:40:01.108Z,1027.18
2023-05-18T06:41:01.018Z,1027.19
2023-05-18T06:42:01.523Z,1027.21
2023-05-18T06:43:01.152Z,1027.22
2023-05-18T06:44:01.050Z,1027.19
2023-05-18T06:45:01.057Z,1027.16
2023-05-18T06:46:01.060Z,1027.17
2023-05-18T06:47:01.053Z,1027.18
2023-05-18T06:48:01.089Z,1027.22
2023-05-18T06:49:01.072Z,1027.18
2023-05-18T06:50:01.100Z,1027.23
2023-05-18T06:51:01.345Z,1027.24
2023-05-18T06:52:01.489Z,1027.2
2023-05-18T06:53:01.206Z,1027.23
2023-05-18T06:54:01.114Z,1027.21
2023-05-18T06:55:00.894Z,1027.21
2023-05-18T06:56:00.510Z,1027.18
2023-05-18T06:57:00.338Z,1027.18
2023-05-18T06:58:00.102Z,1027.24
2023-05-18T06:59:00.487Z,1027.23
2023-05-18T07:00:00.460Z,1027.25
2023-05-18T07:01:00.378Z,1027.28
2023-05-18T07:02:00.364Z,1027.26
2023-05-18T07:03:00.257Z,1027.28
2023-05-18T07:03:59.963Z,1027.28
2023-05-18T07:04:59.616Z,1027.24
2023-05-18T07:06:01.265Z,1027.26
2023-05-18T07:07:01.529Z,1027.25
2023-05-18T07:08:01.552Z,1027.22
2023-05-18T07:09:01.292Z,1027.24
2023-05-18T07:10:02.891Z,1027.26
2023-05-18T07:11:02.028Z,1027.26
2023-05-18T07:12:01.248Z,1027.27
2023-05-18T07:13:01.131Z,1027.26
2023-05-18T07:14:01.024Z,1027.18
2023-05-18T07:15:05.619Z,1027.2
2023-05-18T07:16:01.102Z,1027.24
2023-05-18T07:17:01.032Z,1027.21
2023-05-18T07:18:01.077Z,1027.2
2023-05-18T07:19:01.110Z,1027.21
2023-05-18T07:20:08.657Z,1027.23
2023-05-18T07:21:00.896Z,1027.22
2023-05-18T07:22:01.080Z,1027.16
2023-05-18T07:23:01.429Z,1027.2
2023-05-18T07:24:01.494Z,1027.19
2023-05-18T07:25:12.640Z,1027.22
2023-05-18T07:26:01.896Z,1027.18
2023-05-18T07:27:01.497Z,1027.24
2023-05-18T07:28:01.118Z,1027.23
2023-05-18T07:29:01.138Z,1027.19
2023-05-18T07:30:14.347Z,1027.16
2023-05-18T07:31:01.083Z,1027.17
2023-05-18T07:32:01.081Z,1027.18
2023-05-18T07:33:01.057Z,1027.16
2023-05-18T07:34:01.052Z,1027.16
2023-05-18T07:35:16.265Z,1027.19
2023-05-18T07:36:01.448Z,1027.14
2023-05-18T07:37:01.173Z,1027.2
2023-05-18T07:38:01.083Z,1027.23
2023-05-18T07:39:01.092Z,1027.24
2023-05-18T07:40:01.079Z,1027.23
2023-05-18T07:41:00.783Z,1027.28
2023-05-18T07:42:00.369Z,1027.26
2023-05-18T07:42:59.970Z,1027.25
2023-05-18T07:43:59.582Z,1027.29
2023-05-18T07:45:01.129Z,1027.27
2023-05-18T07:46:01.460Z,1027.25
2023-05-18T07:47:01.529Z,1027.32
2023-05-18T07:48:01.183Z,1027.27
2023-05-18T07:49:02.719Z,1027.26
2023-05-18T07:50:01.741Z,1027.26
2023-05-18T07:51:01.343Z,1027.28
2023-05-18T07:52:01.913Z,1027.24
2023-05-18T07:53:01.994Z,1027.3
2023-05-18T07:54:01.086Z,1027.3
2023-05-18T07:55:01.046Z,1027.27
2023-05-18T07:56:01.029Z,1027.33
2023-05-18T07:57:01.117Z,1027.35
2023-05-18T07:58:01.402Z,1027.31
2023-05-18T07:59:01.134Z,1027.3
2023-05-18T08:00:01.160Z,1027.28
2023-05-18T08:01:01.008Z,1027.24
2023-05-18T08:02:01.155Z,1027.34
2023-05-18T08:03:02.620Z,1027.31
2023-05-18T08:04:01.829Z,1027.38
2023-05-18T08:05:04.472Z,1027.35
2023-05-18T08:06:02.080Z,1027.38
2023-05-18T08:07:01.074Z,1027.29
2023-05-18T08:08:01.068Z,1027.35
2023-05-18T08:09:01.083Z,1027.31
2023-05-18T08:10:01.095Z,1027.29
2023-05-18T08:11:01.132Z,1027.25
2023-05-18T08:12:01.100Z,1027.25
2023-05-18T08:13:01.223Z,1027.28
2023-05-18T08:14:01.497Z,1027.26
2023-05-18T08:15:02.469Z,1027.25
2023-05-18T08:16:10.983Z,1027.29
2023-05-18T08:17:01.451Z,1027.31
2023-05-18T08:18:02.426Z,1027.27
2023-05-18T08:19:01.726Z,1027.27
2023-05-18T08:20:02.524Z,1027.31
2023-05-18T08:21:01.447Z,1027.25
2023-05-18T08:22:01.423Z,1027.25
2023-05-18T08:23:02.067Z,1027.26
2023-05-18T08:24:02.255Z,1027.24
2023-05-18T08:25:01.118Z,1027.25
2023-05-18T08:26:01.103Z,1027.27
2023-05-18T08:27:01.097Z,1027.27
2023-05-18T08:28:01.893Z,1027.27
2023-05-18T08:29:01.028Z,1027.24
2023-05-18T08:30:01.045Z,1027.29
2023-05-18T08:31:01.152Z,1027.25
2023-05-18T08:32:03.913Z,1027.28
2023-05-18T08:33:01.437Z,1027.3
2023-05-18T08:34:01.131Z,1027.33
2023-05-18T08:35:01.948Z,1027.3
2023-05-18T08:36:02.572Z,1027.25
2023-05-18T08:37:01.579Z,1027.19
2023-05-18T08:38:02.190Z,1027.26
2023-05-18T08:39:01.149Z,1027.21
2023-05-18T08:40:01.506Z,1027.21
2023-05-18T08:41:01.085Z,1027.15
2023-05-18T08:42:01.092Z,1027.17
2023-05-18T08:43:01.077Z,1027.19
2023-05-18T08:44:01.104Z,1027.16
2023-05-18T08:45:01.095Z,1027.2
2023-05-18T08:46:01.502Z,1027.16
2023-05-18T08:47:02.165Z,1027.18
2023-05-18T08:48:01.210Z,1027.18
2023-05-18T08:49:01.166Z,1027.15
2023-05-18T08:50:01.170Z,1027.18
2023-05-18T08:51:01.171Z,1027.19
2023-05-18T08:52:01.420Z,1027.18
2023-05-18T08:53:01.075Z,1027.18
2023-05-18T08:54:01.053Z,1027.18
2023-05-18T08:55:01.052Z,1027.24
2023-05-18T08:56:04.537Z,1027.21
2023-05-18T08:57:01.893Z,1027.22
2023-05-18T08:58:01.462Z,1027.18
2023-05-18T08:59:01.465Z,1027.19
2023-05-18T09:00:02.676Z,1027.21
2023-05-18T09:01:06.875Z,1027.18
2023-05-18T09:02:02.251Z,1027.21
2023-05-18T09:03:01.057Z,1027.16
2023-05-18T09:04:01.028Z,1027.16
2023-05-18T09:05:01.090Z,1027.09
2023-05-18T09:06:09.287Z,1027.08
2023-05-18T09:07:01.692Z,1027.07
2023-05-18T09:08:02.177Z,1027.07
2023-05-18T09:09:01.461Z,1027.07
2023-05-18T09:10:00.850Z,1027.1
2023-05-18T09:11:12.245Z,1027.13
2023-05-18T09:12:00.848Z,1027.12
2023-05-18T09:13:01.155Z,1027.16
2023-05-18T09:14:01.088Z,1027.11
2023-05-18T09:15:01.075Z,1027.19
2023-05-18T09:16:15.036Z,1027.14
2023-05-18T09:17:01.096Z,1027.14
2023-05-18T09:18:01.121Z,1027.16
2023-05-18T09:19:01.446Z,1027.13
2023-05-18T09:20:01.504Z,1027.09
2023-05-18T09:21:16.771Z,1027.11
2023-05-18T09:22:01.427Z,1027.1
2023-05-18T09:23:01.028Z,1027.11
2023-05-18T09:24:01.046Z,1027.12
2023-05-18T09:25:01.403Z,1027.14
2023-05-18T09:26:01.048Z,1027.12
2023-05-18T09:27:01.107Z,1027.09
2023-05-18T09:28:01.076Z,1027.2
2023-05-18T09:29:02.090Z,1027.21
2023-05-18T09:30:01.342Z,1027.18
2023-05-18T09:31:01.593Z,1027.18
2023-05-18T09:32:01.306Z,1027.2
2023-05-18T09:33:01.208Z,1027.18
2023-05-18T09:34:01.135Z,1027.15
2023-05-18T09:35:01.016Z,1027.09
2023-05-18T09:36:01.126Z,1027.08
2023-05-18T09:37:01.534Z,1027.09
2023-05-18T09:38:01.666Z,1027.09
2023-05-18T09:39:02.056Z,1027.13
2023-05-18T09:40:01.500Z,1027.1
2023-05-18T09:41:00.744Z,1027.12
2023-05-18T09:42:00.324Z,1027.11
2023-05-18T09:43:00.008Z,1027.1
2023-05-18T09:43:59.647Z,1027.1
2023-05-18T09:45:01.368Z,1027
2023-05-18T09:46:01.091Z,1027
2023-05-18T09:47:01.621Z,1027.02
2023-05-18T09:48:02.180Z,1027.06
2023-05-18T09:49:01.398Z,1027.03
2023-05-18T09:50:01.108Z,1027.03
2023-05-18T09:51:01.111Z,1027.09
2023-05-18T09:52:01.150Z,1027.04
2023-05-18T09:53:01.121Z,1027.01
2023-05-18T09:54:01.045Z,1026.98
2023-05-18T09:55:01.034Z,1026.99
2023-05-18T09:56:01.031Z,1027
2023-05-18T09:57:10.116Z,1027
2023-05-18T09:58:02.258Z,1026.93
2023-05-18T09:59:01.156Z,1026.98
2023-05-18T10:00:01.063Z,1026.98
2023-05-18T10:01:00.925Z,1026.95
2023-05-18T10:02:01.144Z,1026.95
2023-05-18T10:03:00.654Z,1026.94
2023-05-18T10:04:00.418Z,1026.89
2023-05-18T10:05:00.191Z,1026.87
2023-05-18T10:05:59.880Z,1026.87
2023-05-18T10:06:59.452Z,1026.82
2023-05-18T10:08:04.203Z,1026.82
2023-05-18T10:09:01.123Z,1026.83
2023-05-18T10:10:01.246Z,1026.75
2023-05-18T10:11:01.855Z,1026.72
2023-05-18T10:12:01.953Z,1026.71
2023-05-18T10:13:01.052Z,1026.75
2023-05-18T10:14:01.322Z,1026.77
2023-05-18T10:15:01.467Z,1026.74
2023-05-18T10:16:02.147Z,1026.74
2023-05-18T10:17:14.313Z,1026.78
2023-05-18T10:18:02.142Z,1026.7
2023-05-18T10:19:01.141Z,1026.71
2023-05-18T10:20:01.081Z,1026.67
2023-05-18T10:21:00.826Z,1026.65
2023-05-18T10:22:01.336Z,1026.58
2023-05-18T10:23:02.605Z,1026.7
2023-05-18T10:24:02.157Z,1026.7
2023-05-18T10:25:02.204Z,1026.73
2023-05-18T10:26:01.135Z,1026.67
2023-05-18T10:27:01.044Z,1026.65
2023-05-18T10:28:01.042Z,1026.61
2023-05-18T10:29:01.075Z,1026.58
2023-05-18T10:30:01.183Z,1026.65
2023-05-18T10:31:01.131Z,1026.61
2023-05-18T10:32:03.836Z,1026.51
2023-05-18T10:33:03.020Z,1026.58
2023-05-18T10:34:01.893Z,1026.6
2023-05-18T10:35:02.020Z,1026.61
2023-05-18T10:36:01.096Z,1026.63
2023-05-18T10:37:01.112Z,1026.61
2023-05-18T10:38:01.103Z,1026.62
2023-05-18T10:39:01.030Z,1026.56
2023-05-18T10:40:01.043Z,1026.57
2023-05-18T10:41:00.735Z,1026.59
2023-05-18T10:42:01.587Z,1026.65
2023-05-18T10:43:01.588Z,1026.57
2023-05-18T10:44:02.108Z,1026.57
2023-05-18T10:45:02.046Z,1026.56
2023-05-18T10:46:01.173Z,1026.57
2023-05-18T10:47:04.139Z,1026.55
2023-05-18T10:48:01.989Z,1026.54
2023-05-18T10:49:01.100Z,1026.53
2023-05-18T10:50:01.101Z,1026.59
2023-05-18T10:51:01.119Z,1026.62
2023-05-18T10:52:06.630Z,1026.6
2023-05-18T10:53:01.227Z,1026.58
2023-05-18T10:54:01.102Z,1026.56
2023-05-18T10:55:01.150Z,1026.55
2023-05-18T10:56:01.119Z,1026.52
2023-05-18T10:57:09.954Z,1026.56
2023-05-18T10:58:02.399Z,1026.51
2023-05-18T10:59:01.065Z,1026.53
2023-05-18T11:00:01.180Z,1026.49
2023-05-18T11:01:01.646Z,1026.49
2023-05-18T11:02:11.832Z,1026.48
2023-05-18T11:03:02.533Z,1026.48
2023-05-18T11:04:01.073Z,1026.44
2023-05-18T11:05:01.107Z,1026.48
2023-05-18T11:06:01.880Z,1026.47
2023-05-18T11:07:15.587Z,1026.47
2023-05-18T11:08:01.555Z,1026.47
2023-05-18T11:09:01.173Z,1026.43
2023-05-18T11:10:01.120Z,1026.45
2023-05-18T11:11:01.116Z,1026.4
2023-05-18T11:12:01.132Z,1026.39
2023-05-18T11:13:01.253Z,1026.4
2023-05-18T11:14:01.263Z,1026.42
2023-05-18T11:15:02.724Z,1026.39
2023-05-18T11:16:04.118Z,1026.37
2023-05-18T11:17:01.061Z,1026.42
2023-05-18T11:18:01.098Z,1026.36
2023-05-18T11:19:01.162Z,1026.39
2023-05-18T11:20:01.158Z,1026.43
2023-05-18T11:21:02.006Z,1026.47
2023-05-18T11:22:01.140Z,1026.41
2023-05-18T11:23:01.104Z,1026.38
2023-05-18T11:24:01.142Z,1026.44
2023-05-18T11:25:01.113Z,1026.41
2023-05-18T11:26:01.624Z,1026.39
2023-05-18T11:27:01.873Z,1026.38
2023-05-18T11:28:01.185Z,1026.42
2023-05-18T11:29:01.039Z,1026.41
2023-05-18T11:30:14.702Z,1026.45
2023-05-18T11:31:01.301Z,1026.38
2023-05-18T11:32:01.604Z,1026.41
2023-05-18T11:33:01.195Z,1026.38
2023-05-18T11:34:01.077Z,1026.4
2023-05-18T11:35:01.179Z,1026.42
2023-05-18T11:36:01.084Z,1026.39
2023-05-18T11:37:01.580Z,1026.36
2023-05-18T11:38:01.539Z,1026.34
2023-05-18T11:39:01.241Z,1026.33
2023-05-18T11:40:05.658Z,1026.34
2023-05-18T11:41:01.895Z,1026.33
2023-05-18T11:42:01.226Z,1026.35
2023-05-18T11:43:01.111Z,1026.3
2023-05-18T11:44:01.030Z,1026.34
2023-05-18T11:45:01.030Z,1026.32
2023-05-18T11:46:01.427Z,1026.34
2023-05-18T11:47:01.098Z,1026.33
2023-05-18T11:48:02.043Z,1026.4
2023-05-18T11:49:01.767Z,1026.39
2023-05-18T11:50:00.795Z,1026.39
2023-05-18T11:51:00.478Z,1026.4
2023-05-18T11:52:00.170Z,1026.4
2023-05-18T11:52:59.965Z,1026.38
2023-05-18T11:53:59.637Z,1026.37
2023-05-18T11:55:01.338Z,1026.41
2023-05-18T11:56:02.007Z,1026.43
2023-05-18T11:57:01.105Z,1026.4
2023-05-18T11:58:01.417Z,1026.4
2023-05-18T11:59:01.499Z,1026.37
2023-05-18T12:00:02.058Z,1026.4
2023-05-18T12:01:01.361Z,1026.38
2023-05-18T12:02:01.006Z,1026.36
2023-05-18T12:03:01.549Z,1026.38
2023-05-18T12:04:01.181Z,1026.38
2023-05-18T12:05:01.117Z,1026.31
2023-05-18T12:06:01.092Z,1026.37
2023-05-18T12:07:01.095Z,1026.37
2023-05-18T12:08:01.205Z,1026.33
2023-05-18T12:09:01.094Z,1026.36